SMRA70 UAOL 170600
AAXX 17061
71001 17966 02702 10024 20021 39208 40173 54000 69981 7004/ 333 10146 20015 70069 555 33122 4003/=
71002 15966 81803 10105 20055 39611 40138 57014 60001 333 10179 20016 70000=
71003 15566 82507 10161 20098 39748 40116 52002 60001 333 10191 20021 70000 555 32225 40191=
71005 16/// ///// 10107 20101 60001 333 10227 20082 70000=
71006 16/// /1304 10140 20101 60001 333 10291 20070 70000 555 31818 40230=
71007 16/// /2009 10156 20084 60001 333 10299 20088 70000=
71008 16/// /3602 10130 20098 60001 333 10274 20073 70000=
71009 46/// /1602 10121 20090 6///1 333 10288 20039 7////=
71011 16/// ///// 10193 20087 60001 333 10285 20102 70000=
71012 16/// /1603 10137 20128 60001 333 10253 20084 70000=
71013 16/// /1802 10132 20102 60001 333 10290 20070 70000=
71014 16/// /1408 10182 20099 60001 333 10275 20087 70000 555 31418 40200=
71017 16/// /0102 10004 20000 39831 49845 53001 60001 333 10053 20003 70014 555 31521 4022/=
71018 16/// /1317 10026 20012 39828 49912 56016 60001 333 10033 21026 70002 555 31323 4006/=
71021 16/// ///// 10178 20021 39742 40077 51011 60001 333 10243 20081 70000=
71022 15966 01803 10112 20109 30186 40230 52008 60001 333 10159 20083 70000=
71023 15961 02203 10140 20128 39410 40161 58004 60001 333 10203 20095 70000=
71024 16/// /3004 10186 20093 39763 40110 52010 69921 333 10275 20068 70002=
71027 17/// /3501 10160 20129 30133 40145 53009 69991 7//4/ 333 10254 20159 70035=
71028 16/// /3602 10119 20080 39192 40206 53021 60001 333 10280 20053 70008 555 31419 4023/=
71029 17/// /2714 10025 20014 39888 49926 50007 69921 7//4/ 333 10049 20017 70073 555 32829 4016/=
71030 16/// /0503 10146 20139 30094 40188 51007 60001 333 10259 20145 70002 555 30417 4003/=
71031 46/// /2607 10122 20108 30155 40178 51022 6///1 333 10161 7//// 555 32419 4002/=
71033 16/// /1908 10152 20069 39553 40167 56005 60001 333 10216 20004 70000=
71035 16/// /2303 10097 20085 60001 333 10275 20039 70000=
71036 15966 02606 10101 20097 39845 40214 52006 60001 333 10220 20101 70000=
71038 16/// /0000 10142 20135 30128 40180 52006 60001 333 10191 20121 70002=
71040 46/// /0002 10060 20052 39989 40186 52004 6///1 333 10185 20058 7////=
71041 15566 83406 10162 20141 30018 40156 52012 60001 333 10246 20162 70000 555 32919 4016/=
71042 16/// /0000 10126 20120 30183 40187 51017 60001 333 10248 20103 70000=
71057 16/// /1604 10212 20092 60001 333 10297 20050 70000=
71061 16/// /3406 10153 20144 39391 40133 53007 60001 333 10246 20092 70000=
71063 16/// /0803 10182 20142 30075 40167 55001 60001 333 10249 20146 70000=
71064 464// 82730 10058 20042 39734 49939 57003 6///1 333 10086 20018 7////=
71065 16/// ///// 10128 20122 60001 333 10217 20074 70000=
71070 16/// ///// 10179 20044 60001 333 10310 20098 70000=
71088 461// 83411 10026 20025 39943 49995 52003 6///1 333 10070 20018 7////=
71089 16/// ///// 10150 20132 60001 333 10230 20076 70000=
71110 17/// /0208 10134 20134 30045 40103 52016 60031 7//4/ 333 10209 20134 70482=
71118 16/// /1303 10160 20129 39355 40160 50000 60001 333 10228 20093 70000=
71144 16/// /0804 10128 20101 39901 40204 50005 60001 333 10227 20124 70000 555 32818 4007/=
71149 16/// /2703 10123 20102 39789 40212 51002 60001 333 10232 20123 70000=
71152 16/// /0510 10136 30112 40125 53008 60001 333 10193 20136 70131 555 30427 4000/=
71156 16/// /0000 10164 20146 39099 40166 51009 60001 333 10239 20088 70000=
71159 16/// /0503 10119 20097 30069 40139 53006 60001 333 10213 20118 70000=
71171 16/// /1703 10227 20213 30047 40136 58010 69991 333 10315 20201 70010=
71172 17/// ///// 10223 20210 39927 40135 58006 60041 7//4/ 333 10295 20189 70037=
71174 15966 02211 10083 20058 30133 40146 57006 60001 333 10137 20060 70000 555 33436 40082=
71175 16/// /0000 10174 20144 30113 40147 53012 60001 333 10262 20173 70000 555 33021 4019/=
71178 17/// /0220 10112 20105 30082 40113 53007 69951 7//4/ 333 10238 20111 70202 555 30225 4006/=
71181 17/// /0304 10129 20129 30059 40094 52014 60081 7//4/ 333 7////=
71190 46/// /2807 10118 20092 6///1 333 10158 20092 7////=
71191 16/// /3202 10145 20123 60001 333 10226 20145 70000=
71192 17624 81501 10157 20121 39526 40172 52019 60001 704// 333 10274 20104 70000=
71195 17/// /0000 10017 20010 39218 40182 55000 69991 7//4/ 333 10148 20011 70064 555 33121 4003/=
71199 16/// /3001 10093 20003 39338 40154 53006 60001 333 10189 20026 70000 555 32420 4002/=
71202 16/// ///// 10132 20105 60001 333 10294 20074 70000=
71204 16/// /1301 10201 20048 39205 40149 51009 60001 333 10341 20107 70000 555 31918 4021/=
71209 46/// /1007 10176 20150 6///1 333 10217 20151 7////=
71212 16/// /3101 10037 20031 39415 40211 56001 60001 333 10174 20036 70000=
71213 16/// /3404 10132 20126 39861 40152 55001 60001 333 10257 20055 70000=
71217 16/// /0405 10134 20102 60001 333 10298 20076 70000=
71219 16/// /2101 10118 20111 30217 40225 53008 60001 333 10146 20107 70000=
71220 46/// /2404 10129 20102 6///1 333 10147 20111 7////=
71221 16/// /2806 10156 20055 60001 333 10252 20077 70000 555 32819 40000=
71225 16/// /1810 10150 20066 60001 333 10307 20085 70000=
71227 16/// /1505 10122 20112 60001 333 10258 20107 70000=
71228 46/// /1204 10127 20114 6///1 333 10261 20082 7////=
71229 46/// /3205 10114 20089 6///1 333 10282 20050 7//// 555 31818 40200=
71233 16/// /2901 10143 20123 60001 333 10269 20095 70000=
71237 16/// /1602 10148 20112 60001 333 10297 20083 70000=
71259 16/// /0606 10161 20089 60001 333 10288 20087 70000=
71264 16/// /3405 10162 20133 30141 40172 53012 60001 333 10275 20162 70000 555 33120 4000/=
71267 17956 02210 10202 20052 39091 40148 52006 60001 704// 333 10320 20082 70000 555 31917 4004/=
71268 16/// /2303 10166 21004 39571 40176 53017 60001 333 10266 20035 70012 555 33319 4000/=
71269 16/// /0000 10146 20074 60001 333 10292 20106 70000=
71274 16/// /1003 10149 20138 60001 333 10212 20121 70000=
71275 16/// /1203 10149 20143 60001 333 10211 20102 70005=
71277 16/// /1506 10135 20118 60001 333 10219 20075 70004=
71279 16/// /3601 10052 20042 30107 40172 53002 60001 333 10179 20052 70000=
71288 17/// /2520 10063 20051 39899 49922 57008 69951 7//4/ 333 10085 20035 70014 555 32526 4001/=
71291 16/// /1701 10152 20141 39881 40151 50003 60001 333 10259 20087 70000=
71292 15964 01506 10139 20113 39608 40202 57005 60001 333 10233 20121 70000=
71293 15666 83314 10034 20011 30004 40015 52005 60001 333 10046 20016 70004 555 33522 40231=
71294 16/// /0000 10200 20198 39774 40163 58008 60001 333 10279 20142 70000=
71295 16/// /0303 10163 20141 39762 40196 52015 60001 333 10244 20147 70000=
71296 17/// /1403 10218 20203 39847 40141 58013 60041 7//4/ 333 10288 20172 70035 555 31919 4019/=
71297 16/// /2601 10223 20213 30019 40135 58011 60001 333 10294 20191 70006 555 32219 4020/=
71298 17/// /2305 10234 20217 39910 40126 57009 69921 7//4/ 333 10240 20207 70098 555 32018 4017/=
71299 16/// /2301 10162 20134 39881 40133 53005 60001 333 10270 20034 70000=
71300 16/// /0901 10172 20149 30048 40167 58005 60001 333 10263 20147 70000=
71301 16/// ///// 10152 20143 39770 40157 50001 60001 333 10248 20080 70000=
71302 16/// /0401 10103 20072 39373 40177 51010 60001 333 10237 20068 70000=
71303 46/// ///// 10241 20222 39928 40129 57009 6///1 333 10248 20215 7////=
71304 16/// /2204 10156 20035 38766 40171 51010 60001 333 10301 20084 70000 555 32219 4023/=
71305 15966 82202 10187 20126 39814 40093 57006 60001 333 10251 20047 70000 555 31918 4020/=
71306 17366 83223 10053 20040 30066 40098 52032 69931 7004/ 333 10095 20051 70118 555 32040 40162=
71307 17/// /2104 10228 20218 39902 40144 58007 69931 7//4/ 333 10242 20206 70214=
71308 16/// /3311 10168 20148 30081 40163 53013 60001 333 10240 20168 70000 555 33618 4006/=
71309 16/// /0009 10102 20086 30154 40165 51028 60001 333 10253 20083 70000 555 33624 4004/=
71310 16/// /3508 10161 20119 30137 40173 53007 60001 333 10217 20160 70049 555 30117 4022/=
71311 16/// /0104 10147 20133 30159 40183 53008 60001 333 10237 20147 70000 555 30221 4021/=
71312 16/// /1004 10118 20100 39745 40193 58004 60001 333 10204 20082 70000=
71314 17/// /1103 10220 20208 39808 40146 58014 60031 7//4/ 333 10297 20158 70032=
71315 16/// /2205 10109 20089 30132 40185 53010 60001 333 10192 20109 70021=
71316 16/// /1904 10148 20139 39482 40150 58002 60001 333 10207 20091 70000=
71317 16/// /3604 10165 20129 30130 40175 53009 60001 333 10261 20165 70006 555 32517 4015/=
71318 16/// /1506 10130 20107 39242 40165 50001 60001 333 10273 20073 70000=
71320 16/// /3014 10034 20019 30006 40014 51004 60001 333 10046 20016 70000 555 33221 4023/=
71321 16/// /2205 10038 20028 39907 49949 56019 60031 333 10083 20038 7//// 555 31219 4005/=
71322 16/// /2211 10084 20059 30133 40145 58004 60001 333 10140 20060 70002 555 33535 4008/=
71331 16/// /1402 10118 20065 39829 40191 58005 60001 333 10199 20095 70000=
71332 17/// /2516 10107 20067 39963 49991 52008 69931 7//4/ 333 10139 20048 70018 555 32531 4017/=
71335 467// 8//// 10118 20051 39433 40046 57028 6///1 333 10146 20076 7////=
71337 16/// /0207 10076 20076 39914 40149 52003 60001 333 10096 20075 70194 555 30622 4007/=
71338 15766 81904 10024 20023 39988 49995 57006 60001 333 10057 20013 70000=
71339 15266 83502 10054 20053 30166 40179 57001 60001 333 10111 20053 70002 555 30418 4013/=
71341 16/// /2306 10179 20036 60001 333 10321 20075 7//// 555 32317 40010=
71344 16/// /1209 10189 20083 60001 333 10266 20083 70000=
71345 16/// /2210 10170 20006 60001 333 10312 20097 70004=
71346 16/// /2207 10156 20081 60001 333 10305 20083 70000=
71347 16/// /1804 10126 20096 60001 333 10252 20075 70000 555 32619 40000=
71348 16/// /1302 10104 20086 60001 333 10242 20057 70000=
71349 16/// /1004 10124 20124 60001 333 10187 20095 70000=
71350 16/// /0005 10155 20122 30108 40172 53006 60001 333 10212 20154 70011 555 33619 4021/=
71352 17/// /1805 10210 20201 39710 40148 58011 60031 7//4/ 333 10280 20144 70040 555 32422 4019/=
71355 16/// /0110 10030 21001 39892 49975 53008 60001 333 10099 20008 70000 555 32127 4020/=
71356 16/// /2408 10083 20059 39994 40058 58013 60001 333 10137 20027 70000 555 32526 4000/=
71357 46/// /1703 10021 20016 39991 49997 56007 6///1 333 10056 20012 7////=
71359 16/// /0903 10134 20134 60001 333 10209 20096 70000=
71360 16/// ///// 10134 20127 60001 333 10222 20089 70000=
71361 16/// /1706 10146 20075 39871 40070 58001 60001 333 10242 20103 70000 555 32724 4021/=
71362 16/// /0000 10139 20123 39836 40082 50002 60001 333 10252 20045 70000 555 30119 4022/=
71363 17/// /2410 10070 20068 39908 49960 56009 69981 7//4/ 333 10086 20033 70008 555 32322 4005/=
71364 16/// /2303 10110 20064 39852 49979 56009 60001 333 10119 20088 70005=
71365 16/// /1607 10143 20073 39856 40060 52001 60001 333 10241 20066 70000=
71366 15466 82908 10051 20044 39873 49933 52011 69951 333 10059 20032 70060=
71367 16/// /0606 10083 20079 39957 40159 51002 60001 333 7//// 555 30522 4008/=
71369 17732 71502 10153 20138 39458 40146 52007 60001 710// 333 10238 20072 70000=
71380 16/// /1701 10118 20102 60001 333 10286 20058 70000=
71393 16/// /1904 10182 20106 38931 40160 51008 60001 333 10284 20084 70000=
71399 16/// /0704 10151 20103 60001 333 10274 20093 70000=
71401 16/// /0301 10207 20083 39486 40148 51019 60001 333 10353 20132 70000=
71405 16/// ///// 10122 20118 60001 333 10262 20108 70000=
71406 16/// /0708 10074 20054 30153 40163 53004 60001 333 10103 20072 70012 555 30828 4011/=
71409 16/// ///// 10144 20066 60001 333 10306 20088 70004=
71413 46/// ///// 10144 20095 6///1 333 10280 20076 7////=
71449 16/// /3103 10138 20131 39801 40192 51011 60001 333 10294 20092 70000=
71470 46/// /2408 10087 20054 39455 40054 51009 6///1 333 7//// 555 32533 4001/=
71471 17932 02805 10178 20043 39375 40141 52010 60001 704// 333 10247 20054 70000 555 32618 4019/=
71480 17/// /0000 10074 20044 39914 40031 53005 69941 7//4/ 333 10214 20026 70006=
71489 16/// /0906 10139 20113 39395 40168 50000 60001 333 10233 20087 70000=
71491 16/// /2006 10128 20059 39922 40022 57003 60001 333 10206 20095 70000 555 32932 4020/=
71493 16/// /0000 10147 20131 30144 40181 53008 60001 333 10240 20147 70000 555 33418 4022/=
71494 16/// /0201 10090 20086 39688 40200 50000 60001 333 10198 20084 70000=
71495 16/// /2702 10167 20099 60001 333 10281 20053 70000 555 31717 40000=
71497 46/// /2307 10181 20030 39830 40083 51009 6///1 333 10244 20058 7//// 555 32220 4003/=
71500 46/// /3401 10152 20152 6///1 333 10247 20101 7////=
71508 16/// ///// 10232 20207 30014 40147 58009 60001 333 10290 20215 70000=
71509 16/// /2206 10177 20062 60001 333 10310 20099 70000=
71515 16/// /1006 10120 20107 39506 40191 58001 60001 333 10249 20099 70000=
71517 16/// /2513 10212 20033 60001 333 10321 20082 70000=
71518 16/// /3101 10144 20114 60001 333 10292 20097 70000=
71519 16/// /1502 10158 20101 60001 333 10282 20075 70000=
71525 16/// /2104 10165 20109 60001 333 10289 20086 70000=
71526 16/// /1509 10187 20100 60001 333 10278 20097 70000=
71528 16/// /2410 10164 20097 60001 333 10277 20094 70000=
71532 17220 81401 10215 20213 39820 40152 57007 60031 762// 333 10307 20174 70032=
71533 16/// /2806 10183 20070 30154 40196 51030 60001 333 10267 20129 70000 555 32327 4000/=
71534 17/50 71405 10217 20213 39882 40143 58013 60041 7614/ 333 10315 20151 70090 555 31930 40210=
71535 16/// /2005 10151 20096 60001 333 10305 20094 70000=
71536 16/// /2207 10205 20044 60001 333 10316 20085 70000=
71537 16/// /0404 10130 20106 60001 333 10273 20066 70000=
71539 16/// /1210 10179 20111 39491 40166 58004 60001 333 10302 20106 70000 555 31018 4001/=
71540 16/// /1501 10115 20094 60001 333 10283 20036 70000=
71541 16/// /2008 10123 20096 60001 333 10229 20070 70000=
71542 16/// /2504 10189 20085 60001 333 10271 20064 70000 555 32024 40220=
71543 16/// /2802 10125 20079 60001 333 10222 20036 70000=
71544 16/// ///// 10132 20132 60001 333 10233 20097 70000=
71545 46/// ///// 10126 20116 6///1 333 10232 20098 7////=
71548 16/// ///// 10124 20116 60001 333 10203 20097 70000=
71553 16/// /0808 10133 20116 39561 40202 58003 60001 333 10221 20111 70000=
71554 16/// /1803 10087 20074 30184 40190 51005 60001 333 10164 20085 70000=
71555 16/// /3511 10213 20035 38655 40161 51009 60001 333 10275 20112 70009 555 33519 40000=
71556 16/// /1411 10170 20128 39579 40166 58008 60001 333 10253 20097 70000 555 31317 4000/=
71557 16/// /3602 10192 20076 60001 333 10314 20080 70000 555 31918 4022/=
71558 46/// ///// 10074 20056 30130 40166 53002 6///1 333 10098 20073 7////=
71559 16/// /1108 10144 20109 39512 40197 58001 60001 333 10264 20109 70000=
71565 16/// /2002 10104 20095 60001 333 10283 20043 70000=
71566 16/// /0601 10151 20134 60001 333 10254 20096 70000=
71568 16/// /2924 10130 20092 30201 40207 51018 60001 333 10162 20120 70000 555 32833 4004/=
71570 16/// /3102 10152 20124 39900 40204 51008 60001 333 10233 20151 70000=
71572 16/// /2402 10043 20030 39981 40209 52004 60001 333 10183 20042 70002 555 33220 4011/=
71574 15466 82402 10112 20106 30120 40192 52009 60001 333 10186 20107 70005 555 30718 4007/=
71575 16/// /3107 10050 20040 39867 49929 53010 69951 333 10058 20029 70061=
71576 16/// /1701 10044 20036 39912 49993 56002 69921 333 10086 20038 70004=
71580 11466 71716 10061 20043 39920 49954 56028 69961 76166 87500 333 10070 20005 70008 90936 555 10000 20000 31724 40061=
71581 16/// /0000 10183 20164 39693 40159 58004 60001 333 10280 20100 70000=
71582 15966 02001 10104 20084 30180 40233 52011 60001 333 10203 20089 70000=
71584 15066 41401 10058 20055 30122 40168 54000 60001 333 10190 20055 70000 555 30621 40131=
71590 16/// /0000 10068 30009 40197 51006 60001 333 10220 20067 70000=
71594 16/// /3502 10126 20094 39672 40125 51010 60001 333 10220 20080 70000=
71595 15364 73406 10203 20195 30138 40139 52009 60001 333 10247 20191 70134 555 32622 4007/=
71596 16/// /3104 10171 20154 30118 40136 53009 60001 333 10260 20170 70013=
71598 16/// /2003 10098 20091 30178 40184 53007 60001 333 10183 20095 70008 555 30218 4007/=
71602 16/// /1806 10221 20204 39855 40142 58011 60001 333 10278 20171 70000=
71606 16/// /0000 10108 20105 30015 40201 51007 60001 333 10225 20103 70000=
71613 16/// /1209 10046 20005 39953 49966 52005 60001 333 10084 20037 70000 555 31618 4019/=
71622 17/// ///// 10221 20215 39820 40146 58008 60061 7//4/ 333 10250 20177 70202=
71635 16/// /1102 10155 20143 30071 40168 56004 60001 333 10244 20139 70000=
71636 16/// /0000 10141 20141 39392 40152 53007 60001 333 10241 20099 70000=
71637 16/// /1303 10144 20130 39352 40156 58001 60001 333 10227 20114 70000=
71639 11466 81705 10227 20217 39915 40147 58011 69921 76122 884// 333 10300 20186 70002 90920 555 10000 20000 32021 4022/=
71640 16/// /1701 10112 20104 39686 40149 58004 60001 333 10260 20074 70000=
71644 16/// ///// 10199 20095 39625 40154 51019 60001 333 10320 20134 70000=
71645 46/// /3301 10154 20110 39609 40126 51022 6///1 333 10303 20100 7////=
71646 16/// /0204 10115 20098 39902 40200 51008 60001 333 10231 20115 70000=
71652 15566 80207 10140 20108 39975 40186 52023 60001 333 10281 20084 70000 555 30121 4001/=
71653 45466 8//// 10103 20076 30180 40191 52022 6///1 333 10257 20082 7////=
71654 16/// /2203 10150 20142 39422 40145 51009 60001 333 10223 20074 70000=
71655 16/// /1403 10131 20104 39524 40178 58005 60001 333 10220 20108 70000=
71656 17/// /0004 10119 20118 30118 40188 51008 69921 7//4/ 333 10254 20118 70002 555 30218 4021/=
71658 16/// /1606 10100 20079 30116 40183 52003 60001 333 10182 20082 70000=
71659 16/// /0901 10154 20136 30173 40175 53005 60001 333 10183 20138 79999=
71660 16/// /1702 10234 20035 39103 40112 51016 60001 333 10320 20133 70000=
71663 16/// /1302 10134 20116 39411 40143 58005 60001 333 10194 20107 70002=
71664 17940 43002 10139 20134 39342 40145 57001 60001 710// 333 10252 20122 70000=
71666 16/// /2402 10127 20113 30140 40184 52006 60001 333 10192 20127 70010 555 30119 4020/=
71667 16/// /2603 10159 20152 39918 40156 51003 60001 333 10280 20066 70000=
71668 16/// /3402 10140 20137 30149 40191 52009 60001 333 10248 20130 70000=
71670 16/// /1901 10088 20086 30165 40191 53006 60001 333 10193 20088 70006=
71671 16/// /3303 10154 20138 30118 40177 53009 60001 333 10256 20154 70019 555 33119 4022/=
71672 16/// /0000 10209 20196 39898 40152 58010 60001 333 10299 20169 70002=
71674 16/// /1504 10131 20092 60001 333 10287 20074 70000=
71678 15566 80305 10132 20095 39884 40222 52011 60001 333 10209 20132 70000 555 33219 4015/=
71679 16/// /3008 10176 20055 39196 40190 51017 60001 333 10242 20053 70000 555 32817 4000/=
71681 16/// /0401 10224 20112 39753 40135 51021 60001 333 10325 20151 70000=
71684 15766 23305 10131 20130 39863 40156 57001 60001 333 10261 20055 70000=
71685 17959 03102 10154 20122 39633 40158 52020 60001 704// 333 10238 20116 70000=
71686 17520 80502 10066 20011 39241 40182 52014 60001 704// 333 10171 20014 70000 555 32319 4021/=
71687 16/// ///// 10170 20108 39426 40185 51018 60001 333 10286 20106 79999=
71688 16/// /0801 10135 20098 39181 40188 51012 60001 333 10267 20116 70000=
71689 15761 41906 10155 20127 39684 40125 52002 60001 333 10256 20055 70000 555 31518 4022/=
71690 16/// /2302 10093 20090 60001 333 10213 20046 70000=
71691 15966 02803 10077 20073 30155 40182 52003 60001 333 10174 20073 70000=
71693 16/// /1601 10149 20134 39461 40148 51006 60001 333 10237 20073 70000=
71694 16/// /2002 10216 20205 39815 40165 58005 60021 333 10301 20175 70016=
71695 16/// /2202 10115 20087 39875 40203 55000 60001 333 10200 20115 70000 555 30419 4008/=
71696 17/// /1706 10074 20058 30148 40184 58001 69931 7//4/ 333 10167 20073 70003 555 33338 4010/=
71697 15666 81904 10239 20220 39985 40150 57008 60001 333 10284 20184 70000=
71698 16/// /3605 10156 20140 30073 40146 53013 60001 333 10263 20156 70000=
71699 16/// /3303 10131 20125 30173 40180 53007 60001 333 10262 20131 70000=
71704 17348 81904 10224 20221 39920 40133 57007 60021 7614/ 333 10243 20193 70093 555 31817 4019/=
71729 16/// /0202 10103 20092 30112 40186 58004 60001 333 10229 20093 70000=
71732 16/// /1801 10185 20182 60001 333 10276 20108 70000=
71741 16/// /0502 10219 20085 39735 40141 51023 60001 333 10301 20131 70000=
71744 16/// /2402 10142 20135 30144 40184 53007 60001 333 10201 20123 70000 555 30618 4008/=
71746 17/// /1904 10224 20220 39916 40129 58007 60021 7//4/ 333 10247 20187 70091=
71752 16/// /1905 10225 20209 39943 40152 58008 69991 333 10290 20177 70009 555 31821 4001/=
71753 16/// /3404 10143 20129 30137 40165 52010 60001 333 10265 20143 70004=
71754 16/// /1207 10137 20108 39524 40173 50001 60001 333 10221 20082 70000=
71758 16/// /3309 10174 20148 30067 40141 52009 60001 333 10283 20172 70075 555 33519 4019/=
71765 16/// /2112 10260 20106 39875 40139 51026 60001 333 10341 20149 70000 555 31729 4001/=
71766 16/// /3106 10195 20099 30121 40191 51020 60001 333 10247 20125 70000=
71773 16/// /2006 10110 21010 39313 40153 51012 60001 333 10179 20073 70000 555 32017 4021/=
71779 16/// /0000 10159 20120 39525 40170 51018 60001 333 10274 20106 70000=
71787 16/// /0005 10117 20115 39713 40190 51008 60001 333 10217 20117 70000=
71788 16/// /1509 10166 20100 60001 333 10295 20081 70000=
71789 16/// /2408 10154 20055 60001 333 10314 20089 70006 555 33417 40090=
71791 16/// /1107 10150 20136 60001 333 10212 20077 70000=
71792 46/// ///// 10117 20074 6///1 333 10288 20052 7////=
71793 16/// /1207 10142 20098 60001 333 10279 20076 7////=
71794 16/// ///// 10149 20129 60001 333 10236 20093 70000=
71795 16/// /1303 10198 20091 60001 333 10289 20087 70000=
71797 16/// ///// 10157 20137 60001 333 10203 20097 70000=
71812 15961 02209 10261 20092 39878 40142 52027 60001 333 10335 20148 70000 555 31930 40001=
71833 46/// /1704 10212 20207 6///1 333 10288 20154 7////=
71835 16/// /0506 10136 20112 39737 40205 51017 60001 333 10248 20135 70000 555 30517 4005/=
71849 16/// /3503 10095 20082 39914 40203 51008 60001 333 10238 20093 70000 555 31917 4007/=
71914 16/// /2402 39958 53012 60001 333 70000=
71916 17/// /2213 10005 21002 39802 49854 58010 60011 7//4/ 333 10030 21015 70016=
71921 15866 82106 10136 20071 39485 40104 57019 60001 333 10174 20016 70000 555 32319 4021/=
71927 16/// /2501 10154 20112 30131 40185 51019 60001 333 10269 20118 70000=
71941 15966 01805 10139 20116 39764 40169 57002 60001 333 10231 20030 70000 555 31920 4021/=
71942 16/// /3301 10054 20050 30113 40186 53003 60001 333 10179 20052 70000=
71947 15966 01503 10118 20092 39818 40155 54000 60001 333 10228 20010 70000 555 31918 4017/=
71959 16/// ///// 10166 20138 60001 333 10235 20163 70034=
71962 16/// /2901 10136 20118 39774 40184 51011 60001 333 10298 20070 70000=
71970 16/// /1006 10126 20113 39591 40166 58008 60001 333 10206 20060 70000=
71971 16/// /3003 10013 20008 39939 49983 53002 69921 333 10053 20012 70008 555 30918 4007/=
71973 16/// /1103 10099 20084 39968 40152 53003 60001 333 10210 20097 70006=
71983 17/// /2105 10005 20005 39842 49861 56006 60051 7//4/ 333 10010 21017 70049 555 32023 4007/=
71987 16/// /0109 10168 20125 30163 40172 53004 60001 333 10211 20166 70043 555 30424 4011/=
71989 16/// /1905 11011 21021 39850 49866 58004 60001 333 10012 21014 70004=
71999 46/// ///// 10266 20075 39852 40134 51023 6///1 333 10333 20145 7////=
73001 16/// /1413 10175 20138 39501 40176 50001 60001 333 10301 20106 70000 555 31320 4005/=
73002 16/// /0603 10114 20109 39671 40180 58006 60001 333 10194 20077 70000=
73005 16/// /0000 10051 20048 30038 40189 53006 60001 333 10214 20050 70000 555 33218 4018/=
73011 16/// /2002 10105 20086 39702 40170 50001 60001 333 10211 20050 70000=
73015 16/// /3503 10142 20137 30134 40189 53010 60001 333 10281 20141 70000=
73016 16/// /1102 10204 20169 39719 40153 57004 60001 333 10274 20118 70000=
73018 16/// /0201 10111 20101 39815 40153 58001 60001 333 10204 20055 70000=
73024 16/// /0706 10098 20076 30133 40164 53003 60001 333 10175 20098 70066 555 31521 4007/=
73025 16/// /3406 10201 20193 30135 40141 53006 60001 333 10247 20189 70141 555 32718 4007/=
73026 16/// /0801 10159 20140 30084 40132 52007 60001 333 10233 20159 70011 555 32919 4017/=
73027 16/// /3502 10165 20136 30094 40159 53009 60001 333 10258 20164 70033=
73029 16/// ///// 10169 20150 60001 333 10284 20169 70000=
73030 46/// /3415 10179 20151 30131 40146 53006 6///1 333 10272 20174 7//// 555 33423 40171=
76161 06/// /2602 10299 20234 39909 40146 51009 60002 7 8 90 550 333 0 10382 20253 30/// 4 50669 54 55106 22262 56 57 5 8008 59 60007 7 8 8 8 9 9 9 444 555 1 30295=
76219 06/// /0000 10170 20170 38211 40182 50006 60002 7 8 90 550 333 0 10296 20146 30/// 4 50369 54 55045 21583 56 57 5 8016 59 60007 7 8 8 8 9 9 9 444 555 1 30174=
76225 32620 71803 10246 20165 38655 40082 52015 87500 90544 333 10343 20200 30/// 55071 56500 58025 87634=
76243 32910 01302 10314 20208 39889 40164 52018 90540 333 10404 20260 30/// 55110 58020=
76254 06/// /1601 10294 20236 30060 40153 50009 60002 7 8 90 550 333 0 10330 20275 30/// 4 50629 54 55112 22337 56 57 5 8023 59 60007 7 8 8 8 9 9 9 444 555 1 30300=
76293 06/// /3301 10253 20160 38947 40129 52004 60002 7 8 90 550 333 0 10363 20198 30/// 4 50589 54 55102 22271 56 57 5 8014 59 60007 7 8 8 8 9 9 9 444 555 1 30240=
76308 06/// /1602 10173 20162 38482 40907 50003 6///2 7 8 90 550 333 0 10310 20173 30/// 4 50379 54 55008 20899 56 57 5 8043 59 60037 7 8 8 8 9 9 9 444 555 1 30175=
76312 06/// /0101 10249 20240 39884 40155 51008 60002 7 8 90 550 333 0 10356 20221 30/// 4 50479 54 55076 21842 56 57 5 8011 59 60007 7 8 8 8 9 9 9 444 555 1 30253=
76324 /0000 06/// /2202 10199 20145 38325 40249 52010 60002 7//// 8//// 90550 333 0//// 10328 20158 30/// 4//// 50559 54/// 55098 22679 56/// 57/// 58024 60007 8//// 8//// 8/=
76342 32940 02402 10312 20200 39472 40132 52011 90550 333 10396 20245 30/// 55113 58016=
76348 06/// /0301 10289 20187 39667 40133 52013 60002 7 8 90 550 333 0 10393 20255 30/// 4 50679 54 55102 22310 56 57 5 8017 59 60007 7 8 8 8 9 9 9 444 555 1 30291=
76382 32960 01101 10297 20174 38910 40078 52015 90550 333 10375 20235 30/// 55099 2//// 58021=
76383 06/// /1201 10288 20142 38917 40106 52014 60002 7 8 90 550 333 0 10372 20240 30/// 4 50619 54 55107 22166 56 57 5 8018 59 60007 7 8 8 8 9 9 9 444 555 1 30283=
76390 31550 31802 10190 20145 38252 40083 57002 70544 83400 90550 333 10316 20158 30/// 55109 2//// 56300 83630=
76402 32950 02702 10250 20214 30102 40157 52014 90545 333 10385 20214 30/// 55101 2//// 59020=
76403 06/// /2802 10248 20221 30102 40160 52013 60002 7//// 8//// 90550 333 0//// 10393 20222 30/// 4//// 50699 54/// 55093 22534 56/// 57/// 58018 60007 8//// 8//// 8//// 9/=
76404 06/// /1902 10273 20220 30129 40150 51009 60002 7 8 90 550 333 0 10360 20239 30/// 4 50599 54 55097 21932 56 57 5 8012 59 60007 7 8 8 8 9 9 9 444 555 1 30279=
76405 32820 41902 10275 20231 30133 40154 52013 83051 90545 333 0/043 10349 20240 31/// 55099 22426 58014 83357=
76413 06/// /3301 10282 20244 30124 40135 52005 60002 7 8 90 550 333 0 10353 20257 30/// 4 50479 54 55060 21626 56 57 5 8007 59 60007 7 8 8 8 9 9 9 444 555 1 30272=
76423 01560 82201 10155 20154 38195 40127 52007 60471 76052=
76458 32860 33002 10299 20240 30137 40140 53004 83030 90540 333 0/090 10344 20267 30/// 55072 58009 83358=
76490 06/// /1504 10277 20217 39787 40165 52017 60002 7 8 90 550 333 0 10376 20242 30/// 4 50789 54 55111 22381 56 57 5 8023 59 60007 7 8 8 8 9 9 9 444 555 1 30317=
76525 31560 41205 10160 20093 37521 40112 52015 71300 81931 90540 333 10225 20130 30/// 55109 2//// 56333 58020 81927=
76538 06/// /0702 10169 20138 38212 40185 52013 60002 7 8 90 550 333 0 10305 20128 30/// 4 50519 54 55086 22230 56 57 5 8021 59 60007 7 8 8 8 9 9 9 444 555 1 30172=
76539 32958 01202 10174 20153 38187 40120 52015 90550 333 10305 20128 30/// 55092 58021 91102 91512=
76548 32960 01402 10282 20250 30184 40194 50009 90540 333 10372 20250 30/// 55101 58021=
76557 02/// ///// 1//// 2//// 3//// 4//// 5//// 6//// 7//// 8//// 9//// 333 0//// 1//// 2//// 30/// 4//// 5//// 54/// 55/// 2//// 56/// 57/// 5//// 6//// 8//// 8//// 8//// 9/=
76580 06/// ///// 10231 20188 39093 40185 51013 60002 7//// 8//// 90550 333 0//// 10361 20203 30/// 4//// 50589 54/// 55073 22315 56/// 57/// 58022 60007 8//// 8//// 8//// 9/=
76586 06/// /0000 10247 20241 30026 40182 51016 60002 90550 333 0//// 10363 20228 30/// 4//// 50409 54/// 55052 21628 56/// 57/// 60007 8//// 8//// 8//// 9//// 9//// 9//// 44=
76592 06/// /1502 10258 20231 30181 40183 50003 60002 7 8 90 550 333 0 10324 20244 30/// 4 50479 54 55060 21688 56 57 5 8020 59 60007 7 8 8 8 9 9 9 444 555 1 30267=
76611 06/// ///// 10200 20200 38505 40154 52015 60002 7 8 90 550 333 0 10290 20158 30/// 4 50559 54 55071 21946 56 57 5 8017 59 60007 7 8 8 8 9 9 9 444 555 1 30219=
76632 31440 22301 10136 20105 37751 40152 52023 70500 82700 90545 333 10250 20110 31/// 55105 56300 58017 82713=
76641 06/// /0000 10271 20259 30168 40180 50004 60002 7 8 90 550 333 0 10350 20248 30/// 4 50509 54 55091 22128 56 57 5 8025 59 60007 7 8 8 8 9 9 9 444 555 1 30273=
76644 11850 51101 10247 20240 30172 40185 52004 69941 70351 8503/ 90550 333 0/009 10357 20239 31/// 55083 2//// 58023 85358=
76647 32965 00701 10238 20232 3//// 4//// 5//// 90550 333 10354 20232 32/// 5053 58///=
76654 31956 03601 10278 20246 30138 40141 52010 70544 90545 333 10331 20250 30/// 55081 2//// 58005=
76659 06/// /0401 10236 20228 39648 40150 52014 60002 7 8 90 550 333 0 10346 20200 30/// 4 50479 54 55078 22183 56 57 5 8007 59 60007 7 8 8 8 9 9 9 444 555 1 30251=
76662 01560 81004 10184 20148 38502 40155 52017 60311 75052 88400 90550=
76663 06/// /1103 10177 20177 38501 48512 51016 60002 7//// 8//// 90550 333 0//// 10309 1//// 20153 30/// 4//// 50469 54/// 55074 22262 56/// 57/// 58020 60007 8//// 8//// 8/=
76665 01358 52101 10152 20133 38162 40139 52010 60021 70166=
76680 31962 03204 10149 20131 37798 40141 51009 70400 90550 333 10257 20125 30/// 55072 21819 58017=
76683 32963 00602 10148 20100 37874 40161 51008 90545 333 10257 20103 30/// 55096 21721 58016=
76684 06/// /0503 10147 20096 37874 40277 51008 60002 7//// 8//// 90550 333 0//// 10264 20099 30/// 4//// 50489 54/// 55087 22585 56/// 57/// 58014 60007 8//// 8//// 8//// 9/=
76685 32950 00000 10152 20087 37909 40124 52009 90550 333 10270 20104 30/// 55093 58009=
76686 06/// /0201 10142 20103 37915 40187 52009 60002 7 8 90 550 333 0 10282 20096 30/// 4 50489 54 55083 22217 56 57 5 8015 59 60007 7 8 8 8 9 9 9 444 555 1 30144=
76687 31456 32001 10184 20175 38712 40168 57001 70112 83600 90550 333 10272 20131 30/// 55078 56300 58020 83710=
76692 31920 02701 10281 20244 30161 40178 50009 71044 90545 333 10318 20260 30/// 55071 58025=
76695 11956 00801 10234 20228 30168 40173 57013 60011 70000 90550 333 10343 20225 31/// 55076 58022=
76696 06/// /0000 10227 20227 30164 41/// 58014 60012 7//// 8//// 90550 333 0//// 10344 20220 30/// 4//// 50449 54/// 55055 21721 56/// 57/// 58020 60007 8//// 8//// 8//// 9/=
76737 01475 53501 10193 20174 38821 40178 50001 69901 72052=
76750 31558 10802 10281 20247 30167 40177 57004 70300 81400=
76762 11204 30702 10190 20179 38799 40150 51014 60111 71798=
76776 06/// /3001 1//// 2//// 3//// 4//// 5//// 60002 7 8 90 550 333 0 1//// 2//// 30/// 4 50529 54 55081 21845 56 57 5 8 59 60007 7 8 8 8 9 9 9 444 555 1 30195=
76805 11558 83301 10285 20266 30151 40155 52016 69901 75011 85820 90548 333 07670 10346 20240 30/// 58003 82827 83728=
76833 31458 83607 10299 2//// 3//// 4//// 5//// 71322 82310 90550 333 0/900 10360 20271 30/// 55095 58/// 82920 86458 92044 96013=
76834 02/// ///// 1//// 2//// 3//// 4//// 5//// 6//// 7//// 8//// 9//// 333 0//// 1//// 2//// 30/// 4//// 5//// 54/// 55/// 2//// 56/// 57/// 5//// 6//// 8//// 8//// 8//// 44=
76845 11130 50901 10149 20144 37988 40173 50004 60011 70152=
76846 06/// /0402 10148 20120 37972 40181 50003 60002 7 8 90 550 333 0 10242 20114 30/// 4 50439 54 55077 22020 56 57 5 8015 59 60007 7 8 8 8 9 9 9 444 555 1 30150=
76848 11440 80502 10171 20132 38420 40113 50007 69901 76062=
76849 06/// /0403 10215 20189 38423 40110 50004 60002 7 8 90 550 333 0 10294 20200 30/// 4 50579 54 55089 22280 56 57 5 8021 59 60007 7 8 8 8 9 9 9 444 555 1 30170=
76855 32570 13503 10272 20248 30107 40156 51009 81900 90545 333 06900 10342 20250 30/// 55106 58014 81925 92000=
76856 06/// /3503 10263 20243 30088 40137 50008 60002 7 8 90 550 333 0 10341 20246 30/// 4 50609 54 55094 22197 56 57 5 8003 59 60007 7 8 8 8 9 9 9 444 555 1 30286=
78239 31559 20905 10283 20233 30199 40202 52124 70500 82800 333 81820=
78243 42559 21301 10239 20223 30085 40209 57006 82270 333 82820=
78255 42959 30802 10244 20236 30054 40203 54000 80001=
78264 31559 20103 10246 20195 30114 40190 57010 70500 82200 333 82820=
78663 21210 83405 10210 20207 3//// 4//// 5//// 60071 84669 887//=
78762 32970 79902 10198 20183 39153 40138 50005 60141 80007 333 0/000 10277 20197 32/// 58013 86070=
78862 11480 51010 10268 20235 30157 40180 60011 70282 83202 333 01209 10307 20254 58014 83818 83078 90954=
78925 14483 70703 10256 20236 40172 56009 60011 700// 333 10317 20240 55078 22288 58014 70018=
78948 12580 50914 10275 20246 30158 40166 70111 85201 333 02206 10315 20252 58007 85824=
78958 11468 20908 10265 20242 30145 40155 69901 82202 333 01209 10303 20251 58008 82818 90950=
78982 02481 61012 10276 20241 30144 40148 58006 60001 81201 333 58008 60007 81818 86081=



SMUS70 KWBC 170600
AAXX 17064
71032 16/// /3302 10181 20071 39372 40172 51020 60001 333 10325 20087 70000 555 33220 4000/=
71039 16/// /2507 10093 20055 39488 40137 53013 60021 333 10145 20051 70054=
71043 12983 22903 10104 20079 39945 40035 52005 60001 81071 333 10207 20039 70002 555 10000 20000=
71044 16/// /2417 10124 20057 39696 40000 58012 60001 333 10125 20094 70006 555 32741 4017/=
71045 16/// /2310 10105 20014 39329 40175 51015 60001 333 10174 20025 70000 555 32320 4003/=
71048 16/// /3508 10158 20096 60001 333 10277 20110 70000=
71050 16/// /0502 10139 20016 39140 40190 51025 60001 333 10278 20071 70000 555 32617 4001/=
71051 16/// ///// 10188 20074 60001 333 10296 20075 70000=
71055 16/// /2209 10103 20052 39688 40017 58002 60001 333 10150 20081 70000 555 32827 4021/=
71056 16/// /2102 10181 20096 39818 40104 58007 60001 333 10255 20047 70000=
71062 16/// /1402 10147 20135 39098 40137 50001 60001 333 10251 20094 70000=
71066 17505 42602 10166 20096 39701 40106 52007 60001 705// 333 10265 20078 70000=
71068 11959 52505 10127 20111 39463 40140 51008 60001 70411 85001 333 10250 20049 70000 555 10000 20000 32117 4022/=
71072 15966 02504 10157 20152 39918 40156 52002 60001 333 10289 20071 70000=
71074 16/// /1316 10009 20005 39846 49920 52003 60001 333 10036 20003 70004 555 31332 4010/=
71075 16/// /1904 10128 20065 39668 40167 58003 60001 333 10192 20041 70000=
71076 16/// /1302 10145 20091 39729 40109 58008 60001 333 10217 20034 70000=
71077 16/// /1805 10161 20116 39638 40163 56007 60001 333 10232 20100 70000=
71078 15966 01804 10086 20066 39765 40201 57004 60001 333 10186 20071 70000 555 33523 4007/=
71079 12974 03601 10048 20039 39940 40219 51004 60001 333 10181 20040 70000 555 10000 20000 33320 4010/=
71083 12974 72215 10093 20045 30072 40113 58006 60001 87070 333 10126 20055 79999 555 10000 20000 33439 40092=
71084 456// 82319 10068 20064 39922 49967 57002 6///1 333 10100 20032 7////=
71085 17956 02308 10164 20042 38832 40169 52011 60001 704// 333 10309 20078 70000 555 32825 40231=
71087 46/// /1703 10108 20071 39872 40068 51002 6///1 333 10237 20086 7////=
71090 15766 81008 10044 20040 39960 49994 54000 60001 333 10092 20029 70000=
71092 465// 80911 10057 20026 39368 40004 52001 6///1 333 10093 20043 7////=
71094 461// 82115 6///1 333 7////=
71095 17548 81602 10045 20045 39915 49992 57002 69931 761// 333 10085 20040 70004=
71098 17/// /1803 10205 20198 39641 40146 58010 60051 7//4/ 333 10289 20190 70101=
71101 16/// /2502 10126 20088 30221 40229 51009 60001 333 10182 20113 70000=
71102 16/// ///// 10134 20123 60001 333 10206 20107 70000=
71104 11548 73106 10182 20084 39090 40169 51010 60001 70444 87070 333 10279 20086 70000 555 10000 20000=
71105 16/// ///// 10146 20081 60001 333 10298 20072 70000=
71106 46/// /1501 10104 20104 6///1 333 10193 20102 7////=
71108 12974 03104 10171 20120 30118 40190 52013 60001 333 10249 20116 70000 555 10000 20000=
71109 12974 02303 10095 20077 30208 40234 51015 60001 333 10179 20077 70000 555 10000 20000 33322 40030=
71111 15966 02506 10137 20077 30222 40230 52009 60001 333 10183 20123 70000 555 33420 40071=
71113 16/// /1102 10162 20121 30162 40185 51019 60001 333 10270 20120 70000=
71114 16/// /2307 10200 20130 30137 40184 51025 60001 333 10271 20124 70000 555 32718 4023/=
71115 16/// /0902 10198 20098 39586 40146 51018 60001 333 10316 20140 70000=
71120 12669 30000 10140 20130 39523 40167 58003 60001 83500 333 10202 20128 79999 555 10000 20000=
71122 17/// /0401 10118 20033 38620 40180 51014 69961 7//4/ 333 10284 20070 70017 555 32118 4022/=
71123 11956 01306 10147 20129 39303 40145 50001 60001 70411 333 10268 20104 70000 555 10000 20000=
71127 16/// /0603 10174 20138 39259 40117 50001 60001 333 10249 20126 70000=
71129 12966 52902 10139 20118 39350 40156 51001 60001 80001 333 10278 20088 70000 555 10000 20000 32719 4006/=
71130 15966 00704 10115 20104 39748 40197 57004 60001 333 10206 20089 70000=
71131 16/// /0000 10177 20044 38947 40157 50003 60001 333 10313 20123 70000=
71132 15966 21804 10166 20060 39822 40125 57005 60001 333 10220 20000 70000 555 32119 4023/=
71133 16/// /1205 10108 20098 39474 40168 58008 60001 333 10185 20063 70000=
71135 17/// /1713 10221 20074 39126 40169 51005 69921 7//4/ 333 10331 20161 70002 555 31818 4006/=
71136 16/// /0705 10124 20104 39721 40212 58001 60001 333 10219 20124 70000=
71137 16/// /1616 10257 20060 39240 40143 50004 60001 333 10343 20075 70000 555 31620 4006/=
71139 16/// /2501 10215 20039 38752 40154 50000 60001 333 10293 20153 70000=
71140 12974 50604 10115 20101 39720 40212 55001 60001 80001 333 10222 20115 70000 93100 555 10000 20000 32718 4009/=
71142 17959 41605 10185 20091 39211 40144 57003 60001 704// 333 10320 20127 70000=
71145 12574 80605 10140 20104 39934 40222 51005 60001 885// 333 10207 20139 70000 555 10000 20000 33322 40141=
71147 16/// /3303 10143 20129 60001 333 10235 20141 70002 555 33617 4021/=
71148 16/// /0304 10141 20124 39648 40215 51004 60001 333 10223 20106 70000=
71150 16/// /0904 10104 20096 39548 40216 58001 60001 333 10215 20102 70000=
71151 16/// /3504 10164 20136 39705 40194 51011 60001 333 10257 20163 70000=
71153 16/// /2209 10202 20036 60001 333 10325 20108 70000=
71155 16/// ///// 10146 20126 60001 333 10273 20103 70000=
71157 16/// /1105 10184 20131 39359 40138 51001 60001 333 10269 20134 70000=
71158 16/// /0604 10105 20089 39937 40207 51009 60001 333 10211 20105 70000 555 33221 4022/=
71160 16/// /1301 10139 20090 39863 40068 53001 60001 333 10213 20082 70002 555 31921 4013/=
71161 16/// /0901 10184 20170 30018 40162 58006 60001 333 10266 20164 70000=
71162 16/// /2409 10125 20098 39866 40068 51002 60001 333 10134 20104 70000 555 31720 4012/=
71163 46/// /1902 10098 20079 39736 40065 51002 6///1 333 10213 20069 7////=
71165 17/// /2205 10142 20103 39791 40059 51002 69901 7//4/ 333 10212 20104 79999 555 33420 4001/=
71167 17932 00402 10156 20151 39093 40162 52010 60001 710// 333 10239 20079 70000=
71168 16/// /0203 10192 20179 39615 40179 50004 60001 333 10241 20182 70055=
71170 16/// /0102 10097 20090 39747 40208 50001 60001 333 10204 20097 70000=
71180 16/// /0005 10147 20139 30095 40133 52008 60001 333 10228 20147 70000 555 33219 4018/=
71183 16/// /1103 10190 20135 30139 40178 58001 60001 333 10248 20168 70000=
71186 46/// /0702 10125 6///1 333 10197 20125 7////=
71187 15964 02307 10199 20125 30137 40184 52025 60001 333 10273 20129 70000 555 32721 4001/=
71188 12974 02903 10070 20065 30143 40185 53006 60001 333 10182 20064 70000 555 10000 20000=
71189 46/// /3602 10114 6///1 333 10187 20114 7//// 555 32820 4019/=
71193 16/// /1902 10109 20101 39803 40155 51003 60001 333 10272 20042 70000=
71196 16/// /1403 10187 20153 39969 40162 56003 60001 333 10262 20103 70000=
71200 16/// /2613 10124 20108 30104 40187 51018 60001 333 10175 20115 70000 555 32525 4003/=
71201 16/// ///// 10177 20136 60001 333 10242 20147 70000=
71203 17958 00404 10175 20121 39648 40149 52020 60001 704// 333 10314 20103 70000 555 33318 4022/=
71207 16/// /0401 10173 20144 30114 40177 51019 60001 333 10268 20129 70000=
71208 16/// /0403 10084 20066 39953 40227 53012 60001 333 10220 20081 70000 555 33420 4017/=
71211 16/// /1603 10189 20169 30136 40145 51025 60001 333 10212 20174 70000=
71215 16/// /0402 10189 20130 39804 40137 51017 60001 333 10306 20131 70000=
71216 16/// /0301 10156 20103 39552 40151 51015 60001 333 10254 20112 70000=
71218 16/// /1303 10170 20141 39732 40149 51018 60001 333 10274 20116 70000=
71222 16/// /0501 10065 20008 39242 40195 53015 60001 333 10171 20016 70000 555 32318 4022/=
71230 16/// /2504 10135 20031 39279 51013 60001 333 7////=
71232 16/// /0000 10084 20025 38710 40170 51012 60001 333 10300 20036 70000=
71234 16/// /1204 10156 20051 39003 40153 51006 60001 333 10310 20077 70000 555 30918 4002/=
71236 16/// /0000 10112 20065 60001 333 10294 20046 70000 555 32924 4001/=
71238 16/// /1403 10166 20142 60001 333 10246 20108 70000=
71239 16/// /1702 10093 20081 39759 40209 51005 60001 333 10213 20090 70000=
71240 16/// /1304 10129 20109 39339 40165 50000 60001 333 10267 20072 70000=
71244 17/// /2904 10151 20044 38974 40162 51005 69921 7//4/ 333 10316 20094 70002=
71245 46/// ///// 10147 21018 6///1 333 10181 20081 7////=
71246 17/// /1805 10149 20089 39493 40136 51007 69981 7//4/ 333 10249 20068 70022=
71247 17956 01003 10171 20098 39319 40151 52002 60001 704// 333 10285 20093 70000=
71248 16/// /2002 10114 20084 38898 40166 51009 60001 333 10285 20039 70000=
71249 16/// /2603 10094 20073 60001 333 10292 20047 70000=
71250 17/// /3202 10126 20124 39961 40093 53006 60021 7//4/ 333 10241 20126 70122=
71251 16/// /1203 10168 20106 39254 40153 51002 60001 333 10297 20094 70000=
71252 16/// /0701 10095 20063 38639 40176 51012 60001 333 10267 20063 70000=
71254 16/// /1304 10147 20124 39290 40143 51001 60001 333 10275 20102 70000=
71255 16/// /1906 10181 20121 60001 333 10263 20080 70003 555 31917 40230=
71260 12969 23601 10172 20169 39921 40149 58004 60001 333 10292 20122 70000 555 10000 20000=
71261 16/// /1604 10223 20211 39880 40132 58009 60001 333 10259 20192 70002=
71263 11474 81808 10221 20211 39869 40148 58011 69941 72582 888// 333 10293 20174 70076 90925 555 10000 20000 31927 40161=
71265 17566 81808 10233 20223 30054 40146 57009 69981 7614/ 333 10271 20212 70009=
71270 16/// /1402 10219 20210 39927 40130 58013 69961 333 10295 20191 70006=
71271 16/// /2403 10149 20145 60001 333 10225 20074 70000=
71273 16/// /1605 10130 20114 39514 40159 57005 60001 333 10208 20083 70000=
71282 46/// /1103 10226 20203 39885 40145 58012 6///1 333 10299 20184 7//// 555 31723 4021/=
71283 46/// /1804 10139 20113 6///1 333 10249 20065 7////=
71284 16/// ///// 10153 20134 69951 333 10246 20093 70005=
71290 17959 81503 10148 20048 39353 40165 52014 60001 704// 333 10253 20038 70000=
71319 16/// /1802 10078 20076 39354 40203 58001 60001 333 10160 20063 70000=
71323 16/// /1902 10105 20094 39921 40197 50002 60001 333 10213 20103 70000=
71368 17466 81707 10216 20210 39773 40148 57009 60021 7614/ 333 10292 20150 70057 555 32321 4021/=
71370 16/// /3402 10121 20107 30055 40188 58002 60001 333 10217 20121 70000=
71371 15966 01402 10156 20131 30149 40182 57001 60001 333 10258 20145 70000=
71372 16/// /1202 10136 20130 60001 333 10246 20128 70000=
71373 16/// /1704 10152 20117 39918 40186 58002 60001 333 10229 20148 70000=
71375 46/// /2608 10092 6///1 333 10154 20081 7////=
71376 16/// /0801 10135 20124 39902 40180 58006 60001 333 10238 20091 70000=
71377 16/// /0000 10152 20148 30132 40179 58003 60001 333 10244 20146 70000=
71378 16/// /0000 10083 20080 39989 40194 50000 60001 333 10222 20083 70000=
71379 16/// /3202 10073 20066 39993 40160 57001 60001 333 10213 20073 70000=
71382 16/// /1902 10041 20035 39285 40191 53001 60001 333 10145 20041 70000=
71383 16/// /2603 10118 20086 39583 40175 51002 60001 333 10205 20089 70000=
71384 16/// /3403 10142 20112 30181 40188 58002 60001 333 10203 20138 70000=
71386 16/// /1502 10082 20072 39988 40190 53006 60001 333 10195 20081 70000=
71389 16/// ///// 10083 20083 60001 333 10255 20082 70000=
71390 16/// /2703 10123 60001 333 10178 20117 70000 555 32218 40230=
71391 46/// ///// 10148 20144 6///1 333 10231 20130 7////=
71392 16/// /2301 10133 60001 333 10232 20125 70000=
71395 12574 83509 10155 20145 39996 40169 52007 60001 885// 333 10270 20154 70000 555 10000 20000 32920 40160=
71397 12974 03403 10152 20141 30149 40183 52007 60001 333 10260 20150 70000 555 10000 20000=
71398 45366 80112 10100 20086 30156 40167 52030 6///1 333 10251 20086 7//// 555 30129 40031=
71400 16/// /0105 10100 20095 30017 40145 53005 69921 333 10182 20099 70058=
71402 16/// /0512 10099 20082 30028 40141 53002 60001 333 10124 20097 70095 555 30530 4000/=
71403 46/// /3414 10165 20145 30137 40156 52014 6///1 333 10209 20157 7//// 555 32420 4021/=
71410 15966 01302 10087 20076 39947 40222 52004 60001 333 10197 20087 70000 555 33518 4011/=
71411 16/// /3504 10156 20150 30159 40171 53011 60001 333 10259 20143 70000=
71412 16/// /3414 10170 20130 30154 40163 53008 60001 333 10231 20170 70016 555 33529 4016/=
71415 17/// /3413 10171 20137 30164 40167 53010 69961 7//4/ 333 10232 20166 70008 555 32922 4018/=
71419 46/// /3217 10178 20158 30133 40143 53011 6///1 333 10257 20176 7//// 555 32627 4020/=
71424 46/// /3207 6///1 333 7//// 555 30725 40101=
71425 16/// /1507 10098 20070 30143 40179 53005 60001 333 10163 20097 70003=
71426 16/// ///// 10089 60001 333 10145 20069 70000=
71427 16/// /2506 10115 30169 40176 53005 60001 333 10170 20113 70000 555 30420 40141=
71428 16/// /1910 10092 20073 30173 40179 53002 60001 333 10172 20092 70000 555 30519 40120=
71429 16/// /3402 10101 20095 30155 40174 53004 60001 333 10154 20093 70010 555 30421 40141=
71430 16/// /1913 10232 20218 30064 40158 58008 60001 333 10250 20191 70000 555 32018 4001/=
71431 16/// /1001 10235 20223 30053 40145 58010 60001 333 10261 20197 70000=
71432 16/// /2103 10239 20219 30055 40148 57008 60001 333 10283 20221 70000=
71434 16/// /3507 10071 20033 30146 40211 52013 60001 333 10217 20071 70000 555 33327 4018/=
71435 16/// /3402 10154 20136 39599 40174 51004 60001 333 10284 20091 70000=
71436 17856 83201 10204 20201 39927 40154 57010 60001 710// 333 10294 20153 70000=
71437 46/// /1706 10242 20212 30048 40140 58012 6///1 333 10269 20213 7//// 555 31824 4017/=
71440 16/// /1409 10180 20091 60001 333 10284 20086 70000=
71441 16/// /3203 10114 20104 39896 40200 51007 60001 333 10245 20112 70000=
71442 16/// /2704 10103 20082 39899 40207 51005 60001 333 10226 20095 70000=
71443 16/// /1301 10104 20094 39802 40206 50002 60001 333 10223 20103 70000=
71444 16/// /0501 10083 20076 39479 40224 50002 60001 333 10218 20081 70000=
71445 16/// /0909 10153 20122 39938 40209 51007 60001 333 10216 20153 70000 555 33527 4011/=
71446 16/// /1806 10194 20075 39202 40156 57001 60001 333 10323 20121 70000=
71448 16/// /0003 10144 20126 39877 40200 51010 60001 333 10243 20141 70000=
71450 16/// /1111 10175 20118 39457 40153 58008 60001 333 10286 20086 70000 555 31017 4000/=
71451 16/// /2501 10083 20072 39771 40192 58003 60001 333 10191 20083 70000=
71452 16/// /1413 10166 20117 39493 40183 58001 60001 333 10289 20110 70000 555 31419 4005/=
71453 16/// /1802 10146 20094 39271 40160 50001 60001 333 10290 20091 70002=
71454 16/// /1504 10138 20106 39509 40185 57006 60001 333 10204 20084 70000=
71455 16/// /1005 10151 20094 39383 40156 55003 60001 333 10293 20077 70000 555 30917 4023/=
71456 16/// /1104 10130 20113 39605 40190 56005 60001 333 10209 20095 70000=
71457 16/// /1101 10142 20094 39279 40145 51002 60001 333 10298 20094 70000=
71458 16/// /1603 10142 20131 39399 40143 58001 60001 333 10235 20095 70003=
71459 16/// /3302 10163 20077 39365 40148 51002 60001 333 10294 20088 70000=
71460 46/// /3304 10229 20172 39920 40153 58007 6///1 333 10236 20175 7////=
71461 16/// /2203 10128 20106 60001 333 10233 20059 70000=
71463 46/// /2314 10234 20202 39939 40155 58008 6///1 333 10258 20230 7//// 555 32432 4001/=
71465 46/// ///// 6///1 333 7////=
71473 16/// ///// 10139 20118 30153 40183 53013 60001 333 10224 20122 70000=
71474 16/// /2304 10144 20064 38968 40159 51012 60001 333 10274 20085 70000=
71475 16/// /1303 10155 20124 30104 40196 51023 60001 333 10297 20109 70000 555 31117 4003/=
71477 16/// /2305 10093 20076 30218 40226 51008 60001 333 10165 20089 70000 555 32919 4009/=
71481 16/// /3601 10118 20111 60001 333 10251 20084 70000=
71486 16/// /2103 10113 20079 38998 40167 51015 60001 333 10301 20062 70004=
71487 16/// /1606 10234 20077 39324 40157 50003 60001 333 10331 20106 70000 555 31017 4002/=
71488 16/// /2109 10153 20028 38665 40166 51008 60001 333 10303 20091 70000=
71496 16/// /1108 10178 20109 39566 40159 58004 60001 333 10254 20084 70000 555 31117 4022/=
71498 16/// /1603 10154 20107 60001 333 10283 20075 70000=
71499 15966 01908 10150 20081 39556 40168 57005 60001 333 10214 20027 70000 555 32218 4020/=
71503 46/// /0304 10092 20052 39786 40045 52005 6///1 333 10225 20015 7//// 555 32518 4001/=
71505 16/// /2607 10092 20001 39446 40157 51019 60001 333 10179 20002 70000 555 32623 4021/=
71510 16/// /0108 10151 20122 39466 40155 55001 60001 333 10279 20070 70000=
71511 16/// /0703 10111 20090 39554 40178 58006 60001 333 10251 20111 70000=
71512 16/// /2802 10056 20053 30155 40168 53001 60001 333 10192 20055 70000=
71513 17/03 /0703 10072 20072 30159 40174 52002 60001 761// 333 10194 20053 70000 555 30622 40081=
71514 16/// /1315 10172 20124 39492 40169 58004 60001 333 10282 20123 70000 555 31322 4006/=
71516 16/// /1308 10206 20093 39293 40162 51006 60001 333 10336 20097 70000=
71520 46/// /1407 10109 20076 39509 40161 55001 6///1 333 10212 20024 7////=
71521 16/// /2003 10114 20091 60001 333 10200 20059 70000=
71523 46/// ///// 10068 20061 39805 40171 55000 6///1 333 10229 20068 7////=
71524 17/// /0301 10144 20133 30162 40187 58003 69951 7//4/ 333 10251 20137 70007=
71527 15966 00205 10173 20144 39696 40185 52010 60001 333 10285 20159 70000 555 32823 40191=
71538 11566 72206 10229 20223 39912 40135 56008 60061 70286 87500 333 10246 20207 70134 90936 555 10000 20000 32018 4021/=
71550 16/// /2605 10103 20092 39842 40210 51005 60001 333 10222 20103 70000=
71551 17/// /1206 10165 20126 39515 40129 58005 69921 7//4/ 333 10268 20097 70002=
71552 46/// /0103 10177 20158 6///1 333 10236 20177 7//// 555 32123 4007/=
71564 16/// /3204 10152 20135 39846 40203 51006 60001 333 10224 20150 70000=
71569 16/// /1309 10166 20127 39483 40163 58002 60001 333 10286 20103 70000 555 31118 4002/=
71573 17/// /1704 10225 20211 39868 40140 57010 60031 7//4/ 333 10280 20167 70057=
71577 46/// /3204 10149 20110 6///1 333 10224 20149 7////=
71578 16/// /3202 60001 333 70000=
71579 16/// /3502 10159 20105 39921 40198 51009 60001 333 10234 20159 70000=
71585 16/// /1905 10154 20117 39680 40120 50002 60001 333 10260 20054 70000 555 31617 4022/=
71586 16/// /1804 10162 20118 39725 40179 57003 60001 333 10196 20071 70002=
71587 15666 40404 10131 20096 39866 40219 52009 60001 333 10205 20131 70000 555 33219 4016/=
71588 46/// /1101 6///1 333 7////=
71589 17/// /0105 10097 20096 39989 40119 53004 60011 7//4/ 333 10260 20097 70108=
71597 17666 82411 10071 20070 39907 49967 57008 69951 7004/ 333 10085 20033 70004 555 32224 40051=
71599 16/// /3501 10141 20128 30027 40178 53009 60001 333 10269 20141 70000=
71603 11164 03604 10132 20131 30127 40179 52007 60001 70241 81600 333 10233 20127 70000 555 10000 20000=
71604 17/// /3307 10122 20124 69971 7//4/ 333 10204 20122 70211=
71605 16/// /3301 10165 20131 30042 40192 53017 60001 333 10246 20149 70000=
71607 16/// /3101 10128 20121 30155 40187 53005 60001 333 10263 20124 70009=
71608 16/// /1004 10164 20133 30181 40184 51017 60001 333 10242 20140 70000=
71609 12474 80405 10137 20129 30055 40186 52004 60001 8657/ 333 70000 555 10000 20000 33320 40150=
71610 15966 00805 10106 20103 39909 40200 57001 60001 333 10219 20106 70000=
71611 16/// /0704 10111 20106 60001 333 10229 20111 70000=
71612 16/// /2402 10187 20137 30093 40181 58001 60001 333 10254 20171 70000=
71614 16/// /0000 10129 20126 30114 40178 58003 60001 333 10244 20119 70000=
71618 15966 01807 10072 20063 30151 40188 57001 60001 333 10167 20072 70000 555 33542 40092=
71619 16/// /1701 10137 20130 30125 40180 53004 60001 333 10178 20117 70000=
71621 12974 81603 10230 20214 30053 40155 58009 60001 8807/ 333 10284 20179 70000 555 10000 20000=
71623 42248 82006 10219 20215 39818 40144 58007 6///1 333 10256 20171 7////=
71624 11474 81705 10230 20214 39942 40146 58010 69961 78022 888// 333 10299 20202 70014 90931 555 10000 20000 32223 40211=
71625 15664 41306 10204 20169 30004 40160 56002 60001 333 10261 20102 70000 555 31417 40220=
71627 12674 10903 10180 20138 30137 40180 58001 60001 81531 333 10249 20164 70000=
71628 12974 01004 10176 20144 30039 40176 55001 60001 80001 333 10250 20141 70000 555 10000 20000=
71631 17/// /1502 10210 20200 39661 40142 58011 60071 7//4/ 333 10280 20179 70071 555 32220 4019/=
71632 46/// /1804 10085 20055 39763 40196 58004 6///1 333 10190 20073 7//// 555 33421 4007/=
71633 11559 8//// 10218 20209 39875 40137 58013 69941 72082 885// 333 10296 20176 70110 90916 555 10000 20000=
71634 16/// /2201 10128 20128 30044 40195 53008 60001 333 10186 20118 70051=
71638 16/// /0802 10155 20133 30086 40189 53016 60001 333 10243 20138 70000=
71675 15966 00503 10086 20064 39951 40225 52012 60001 333 10221 20085 70000 555 33419 4016/=
71700 15966 03202 10123 20122 30165 40190 52009 60001 333 10258 20116 70000 555 33117 4015/=
71701 15003 80000 10114 20110 30129 40190 53009 60001 333 10250 20113 70000=
71702 17/// /3306 10152 20132 30160 40175 53005 69921 7//4/ 333 10210 20152 70013 555 30420 4021/=
71705 12574 23004 10119 20112 30099 40185 53008 60001 81501 333 10223 20119 70002 555 10000 20000 33621 40191=
71706 12574 73504 10149 20122 30114 40173 51006 60001 87500 333 10218 20149 70004 93100 555 10000 20000 30219 4015/=
71707 12474 83310 10175 20146 30068 40142 53009 60001 885// 333 10281 20172 70065 555 10000 20000 33620 40191=
71710 46/// /0013 10150 20117 30149 40158 53005 6///1 333 10200 20145 7//// 555 30122 4018/=
71713 16/// /1304 10104 20099 30149 40186 50000 60001 333 10215 20099 70000=
71714 16/// /3502 10124 20108 30119 40192 51003 60001 333 10230 20114 70000=
71715 16/// /1903 10112 20088 30012 40190 51001 60001 333 10188 20103 70000=
71716 15964 00303 10109 20100 39996 40199 51003 60001 333 10222 20081 70000=
71717 15966 00802 10126 20065 38894 40170 52013 60001 333 10265 20032 70000=
71718 12983 11705 10098 20078 30123 40188 52004 60001 80001 333 10173 20095 70000 555 10000 20000=
71719 16/// /1702 10097 20088 30179 40185 53005 60001 333 10166 20089 70000 555 30222 4007/=
71720 16/// ///// 10184 20114 30041 40191 51014 60001 333 10242 20112 70000=
71723 16/// /0702 10126 20110 30173 40183 58005 60001 333 10239 20123 70000=
71724 16/// /0103 10151 20118 30175 40182 58002 60001 333 10237 20146 70000=
71725 16/// /1704 10133 20110 39765 40172 56002 60001 333 10230 20030 70000=
71726 16/// /0000 10084 20081 39654 40184 58005 60001 333 10216 20080 70000=
71727 12982 00000 10096 20085 30001 40195 51006 60001 333 10202 20093 70012 555 10000 20000=
71728 12982 02211 10142 20097 39960 40177 57003 60001 8/001 333 10191 20108 70000 555 10000 20000 32417 4006/=
71730 12974 53004 10195 20172 39739 40150 58004 60001 85001 333 10282 20129 70000 555 10000 20000=
71731 15766 70904 10208 20171 39717 40152 57004 60001 333 10273 20115 70000 555 32733 4018/=
71733 16/// /2903 10197 20172 39739 40134 58005 60001 333 10280 20126 70000=
71734 16/// /1602 10164 20134 39779 40159 56001 60001 333 10242 20075 70000=
71736 16/// /2207 10165 20026 38834 40168 51011 60001 333 10312 20079 70000 555 32522 4023/=
71739 42974 52002 10108 20108 39802 40155 52004 6///1 80001 333 10274 20038 7//// 555 31817 4020/=
71747 16/// /0000 10151 20136 39713 40173 51007 60001 333 10297 20092 70000=
71748 16/// /3103 10094 20070 39924 40203 51009 60001 333 10229 20092 70000=
71750 16/// /0503 10120 20109 39930 40159 58002 60001 333 10210 20071 70000=
71751 46/// /3206 10183 20158 39895 40146 50001 6///1 333 10217 20132 7//// 555 32018 4020/=
71768 16/// /3007 10244 20032 39617 40143 51017 60001 333 10272 20139 70000=
71769 16/// /2714 10202 20149 30164 40182 51014 60001 333 10227 20173 70000 555 32920 4009/=
71770 16/// /0603 10239 20066 39407 40149 51014 60001 333 10342 20163 70000=
71772 16/// /3003 10191 20152 30173 40185 52016 60001 333 10217 20177 70000 555 33320 4010/=
71775 16/// /1101 10174 20126 30184 40190 51018 60001 333 10265 20136 70000=
71776 16/// /2301 10182 20111 39525 40145 51018 60001 333 10301 20131 70000=
71777 16/// ///// 10171 20136 39917 40159 51031 60001 333 10327 20121 70000=
71778 46/// /2835 10127 20117 30150 40188 53008 6///1 333 10173 20111 7//// 555 32741 4005/=
71780 46/// /2924 30167 51012 6///1 333 7//// 555 32934 4003/=
71781 46/// /3215 10197 20117 30162 40186 51015 6///1 333 10229 20167 7//// 555 33221 4006/=
71782 16/// /3403 10141 20075 38892 40179 51017 60001 333 10310 20085 70000 555 31917 4022/=
71783 16/// /2402 10137 20106 30115 40187 51018 60001 333 10237 20109 70003=
71784 16/// /0501 10166 20092 39988 40191 51016 60001 333 10242 20156 70000=
71785 16/// /1603 10164 20128 30176 40192 53016 60001 333 10224 20132 70000=
71786 16/// /0801 10102 20032 38419 40184 51010 60001 333 10257 20050 70000 555 32525 4023/=
71800 16/// /0405 30059 53008 60001 333 70337=
71801 11174 83409 10124 20122 39933 40102 53006 60031 70285 886// 333 10253 20123 70114 90927 555 10000 20000 32419 4011/=
71803 11158 80208 10098 20098 39954 40138 51003 60011 71065 886// 333 10211 20098 70084 90923 555 10000 20000 30320 4020/=
71805 04284 80314 10141 20133 30107 40115 53012 69922 700// 333 10212 20141 3/014 4//// 55000 60007 70069 90710 91120 555 60005=
71808 12374 60509 10066 20054 30131 40177 52002 60001 86670 333 10139 20066 70046 555 10000 20000 30929 40191=
71809 12474 80508 10099 20084 30128 40155 50002 60001 88600 333 10189 20099 70026 555 10000 20000 30426 40091=
71810 16/// /0802 10081 20069 30107 40172 53003 60001 333 10208 20081 70000 555 30721 4013/=
71813 16/// /0603 10070 20069 30157 40170 53001 60001 333 10192 20052 70000 555 30422 4008/=
71815 12574 80507 10127 20097 30112 40142 53005 60001 8557/ 333 10223 20127 70000 555 10000 20000 30520 40001=
71816 12974 12503 10071 20039 30085 40145 58013 60001 81071 333 10180 20067 70000 555 10000 20000=
71818 12974 01807 10076 20060 30143 40161 57005 60001 80/// 333 10165 20032 70000 555 10000 20000=
71819 15366 80206 10074 20060 30133 40174 52002 60001 333 10097 20073 70006 555 30326 40101=
71820 16/// /2103 10231 20216 30049 40160 58006 60001 333 10251 20185 70000=
71821 16/// /1804 10126 20092 39820 40157 50000 60001 333 10232 20028 70000 555 31720 4018/=
71825 15966 82305 10123 20060 39488 40143 57011 60001 333 10181 20025 70000=
71826 16/// /0807 10098 20054 39927 49966 57010 60001 333 10110 20048 70004 555 30919 4006/=
71827 11132 83110 10093 20088 39909 40148 53020 69901 71062 886// 333 10189 20089 79999 90931 555 10000 20000 32026 40201=
71831 12974 73601 10146 20121 39879 40151 52004 60001 80002 333 10273 20041 70000 555 10000 20000 32119 4021/=
71832 16/// /3204 10181 20138 39840 40155 51007 60001 333 10267 20050 70000 555 31918 4020/=
71834 12774 80406 10188 20156 39756 40170 52013 60001 83531 333 10271 20088 70000 555 10000 20000 32122 40191=
71840 16/// /3205 10138 20136 39798 40208 51005 60001 333 10223 20119 70000 555 32622 4011/=
71842 42969 83304 10163 20144 39729 40184 52014 6///1 80001 333 10283 20149 7//// 555 32817 4016/=
71846 16/// /0508 10146 20099 39903 40210 53016 60001 333 10244 20133 70000=
71848 16/// /1704 10180 20105 60001 333 10290 20104 70000=
71850 11966 /3605 10163 20138 39710 40196 51012 60001 70411 333 10258 20161 70000=
71851 16/// /2803 10135 20129 39878 40206 51007 60001 333 10222 20135 70000=
71855 16/// /0102 10158 20134 39670 40164 51010 60001 333 10287 20151 70000=
71856 16/// /0201 10092 20089 39909 40156 53004 69941 333 10198 20092 7//// 555 30117 4014/=
71857 16/// ///// 10128 20114 60001 333 10198 20086 70000=
71858 16/// /2302 10076 20065 39933 40210 55001 60001 333 10197 20076 70000=
71861 16/// /1306 10111 20094 39492 40202 55000 60001 333 10230 20111 70000=
71862 11956 01108 10142 20115 39512 40198 56001 60001 70400 333 10266 20109 70000 93100 555 10000 20000=
71865 16/// /1508 10148 20102 39520 40183 58006 60001 333 10236 20105 70000=
71867 15966 71401 10120 20101 39878 40208 54000 60001 333 10200 20117 70000 555 33421 4009/=
71868 16/// /3201 10113 20104 39768 40200 51002 60001 333 10217 20077 70000=
71869 12974 70805 10115 20106 39678 40195 56006 60001 87030 333 10188 20068 70000 555 10000 20000=
71871 15762 41506 10138 20130 39379 40167 57004 60001 333 10196 20100 70000=
71872 16/// /0000 10038 20002 39872 49963 52004 60001 333 10062 20020 70000=
71876 15966 01108 10136 20117 39528 40179 54000 60001 333 10223 20084 70000 555 30917 4004/=
71877 11856 32004 10189 20110 38914 40163 51009 60001 70511 85070 333 10283 20102 70000 555 10000 20000 31318 4000/=
71878 42948 23601 10164 20107 39115 40158 51007 6///1 333 10288 20050 7////=
71880 11959 11704 10214 20052 39092 40157 53015 60001 704// 84070 333 10320 20120 70000 555 10000 20000=
71882 16/// /0000 10151 20128 39634 40156 51021 60001 333 7////=
71883 16/// /0000 10125 20109 39371 40171 51020 60001 333 10300 20060 70000=
71884 16/// /3404 10130 20126 30135 40179 53007 60001 333 7////=
71886 16/// /1507 10144 20112 39609 40203 55004 60001 333 10231 20118 70005=
71887 12961 00000 10228 20088 39733 40139 51023 60001 333 10305 20128 70000 555 10000 20000=
71889 11958 13503 10172 20074 39740 40144 51017 60001 70400 333 10279 20101 70000 555 10000 20000=
71890 16/// /2803 10070 20066 30154 40182 53003 60001 333 10176 20067 70000=
71892 12974 01106 10166 20131 30183 40188 52017 60001 333 10235 20132 70000 555 32024 4022/=
71893 12980 03408 10175 20115 30160 40191 52017 60001 333 10256 20151 70000 555 10000 20000=
71894 16/// /3115 10132 20115 60001 333 10170 20115 70000 555 33122 4005/=
71896 17520 80401 10104 20079 39362 40180 52009 60001 710// 333 10236 20069 70000 555 30919 4017/=
71900 46/// /2111 10122 20072 30090 40102 58027 6///1 333 10166 20067 7//// 555 31230 4021/=
71904 16/// ///// 10140 20096 60001 333 10278 20053 70000=
71905 16/// /2902 10143 20081 39260 40171 51018 60001 333 7////=
71906 11574 82413 10132 20102 39956 40005 57009 69921 76162 885// 333 10198 20087 70008 90917 555 32036 40001=
71911 464// 82217 10081 20061 39917 49971 57023 6///1 333 10093 20020 7////=
71912 11972 01804 10072 20046 30034 40215 52003 60001 70411 333 7//// 555 10000 20000 30129 40121=
71915 12574 0//// 10020 21011 39976 40054 51017 60001 81500 333 79999 555 10000 20000=
71917 12774 81408 10057 21005 39955 49968 52005 60001 885// 333 10087 20057 70000 555 10000 20000 31220 4008/=
71918 45/// /1913 10043 39615 40019 56023 6///1 333 10058 21012 7//// 555 33229 40091=
71920 16/// /3005 10129 20126 30168 40174 53009 60001 333 10181 20123 70000=
71922 12774 81705 10164 20126 39729 40186 58003 60001 8157/ 333 10200 20051 70000 555 10000 20000=
71923 16/// /1915 10123 20079 39696 40126 58012 60001 333 10152 20046 70000 555 32224 4001/=
71924 11674 81319 10024 20011 39836 49922 57016 69901 70252 885// 333 10031 21028 79999 90932 555 10000 20000 31325 40061=
71925 11366 82419 10061 20049 39891 49930 57009 69961 76162 8653/ 333 10082 20034 70020 90913 555 10000 20000 32426 40051=
71926 12874 12411 10082 20064 30035 40058 57015 60001 81070 333 10148 20026 70000 9090/ 555 10000 20000 32528 40201=
71928 16/// /2103 10120 20089 39021 40153 51005 60001 333 10280 20047 70000=
71931 46/// /0318 10112 20102 30100 40112 53002 6///1 333 10192 20108 7//// 555 30427 4022/=
71932 16/// /1604 10219 20199 39773 40152 58011 60001 333 10281 20169 70000=
71933 16/// /0202 10106 20068 39365 40180 52014 60001 333 10219 20068 70000=
71934 11874 53601 10146 20131 39836 40085 52003 69901 70282 85071 333 10254 20047 79999 90911 555 10000 20000 31922 4021/=
71935 12974 21608 10138 20073 39876 40077 54000 60001 8/001 333 10243 20094 70000 555 10000 20000 32725 40211=
71936 12966 12306 10142 20087 39823 40074 51004 60001 8/031 333 10199 20108 70000 555 10000 20000 31718 4012/=
71938 11674 72416 10108 20069 39967 49996 52009 69941 70286 87530 333 10139 20047 70026 90925 555 10000 20000 32134 40131=
71940 11940 32605 10134 20082 39368 40159 52010 60001 70422 82071 333 10208 20057 70000 555 10000 20000=
71943 11956 62808 10178 20051 39325 40138 51010 60001 70411 84071 333 10250 20068 70000 555 10000 20000 32018 4022/=
71944 16/// /1203 10155 20042 39347 40161 51015 60001 333 10255 20041 70000=
71945 11656 32902 10123 20095 39667 40126 52010 60001 70422 80000 333 7//// 555 10000 20000=
71946 12974 21707 10163 20070 39854 40060 52002 60001 81071 333 10240 20076 70000 555 10000 20000=
71948 466// 82416 10027 20026 39836 49944 57004 6///1 333 10052 20015 7////=
71950 15966 72303 10166 21002 39568 40186 52017 60001 333 10270 20024 70000 555 33320 4000/=
71951 12974 61715 10172 20073 39943 40205 52019 60001 86070 333 10246 20089 70000 93100 555 10000 20000 31733 40041=
71952 16/// /1102 10147 20031 39350 40184 51018 60001 333 10267 21007 70000=
71954 16/// /0000 10137 20095 39840 40208 50000 60001 333 10202 20108 70000 555 33421 4007/=
71956 16/// /0004 10210 20189 39917 40140 58005 60001 333 10297 20162 70000=
71960 462// 82216 10073 20072 39831 49957 57014 6///1 333 10077 20057 7////=
71963 16/// ///// 10102 20087 39690 40077 51005 60001 333 10180 20046 70000=
71964 42774 32118 10114 21002 39315 40155 53010 6///1 333 10182 20076 7////=
71965 12780 71302 10101 20079 39509 40115 50002 60001 333 10167 20045 70006 555 10000 20000 32319 4023/=
71966 16/// /2402 10094 20053 39657 40104 53005 60001 333 10178 20052 70000 555 32018 4001/=
71979 46/// /2902 10079 20066 38558 40174 51012 6///1 333 10239 20069 7////=
71981 16/// /2605 10140 20081 60001 333 10294 20083 70004=
71982 46/// /2303 10129 20087 6///1 333 10293 20067 7////=
71984 17/// ///// 10089 20070 39952 49960 56008 69921 7//4/ 333 10100 20071 70018=
71985 46/// ///// 10080 20067 39942 49948 58021 6///1 333 10091 20075 7////=
71986 16/// /1008 10188 20096 60001 333 10284 20104 70000 555 30718 40080=
71988 16/// /0403 10129 20127 30160 40193 53011 60001 333 10200 20129 7////=
78016 32564 13005 10270 20231 30228 40232 57010 81000 333 10305 20269 70000=
78073 11465 51008 10290 20261 40223 69901 78011 83902 333 06909 58024 81915 83818 90910=
78388 11572 29901 10270 20236 30162 40171 60001 70511 81802 333 00909 10347 20258 58014 81822=
78397 11576 30105 10284 20236 30159 40161 60001 70522 81802 333 00909 10333 20254 58011 81822=
78583 11462 71010 10270 20247 40171 69921 78081 86202 333 02205 58021 86815 87078 90910=
78866 11568 20914 10271 20242 30183 40188 59009 60061 72581 82800 333 58016 82820=
78897 14467 80806 10252 20238 40178 56012 60021 700// 333 10312 20242 58014 70048=
78962 11459 60905 10266 20235 30140 40156 69931 71581 85832 333 02299 10312 20248 58008 85812 90950=
78970 11468 50000 10251 20240 30130 40155 60001 71511 85800 333 05200 10326 20224 58009 81814 84816=
78988 01/75 /1207 10267 20225 30146 58006 60001 70000 333 58012 60007=